sensor_id;sensor_type;location;lat;lon;timestamp;P1;durP1;ratioP1;P2;durP2;ratioP2
39256;SDS011;67272;48.066;11.038;2023-09-30T00:01:11;15.35;;;9.90;;
39256;SDS011;67272;48.066;11.038;2023-09-30T00:03:42;17.17;;;10.50;;
39256;SDS011;67272;48.066;11.038;2023-09-30T00:09:06;16.40;;;10.00;;
39256;SDS011;67272;48.066;11.038;2023-09-30T00:11:32;16.55;;;10.00;;
39256;SDS011;67272;48.066;11.038;2023-09-30T00:14:06;17.67;;;10.15;;
39256;SDS011;67272;48.066;11.038;2023-09-30T00:16:32;18.13;;;10.35;;
39256;SDS011;67272;48.066;11.038;2023-09-30T00:18:59;18.15;;;10.60;;
39256;SDS011;67272;48.066;11.038;2023-09-30T00:21:29;20.13;;;10.82;;
39256;SDS011;67272;48.066;11.038;2023-09-30T00:23:55;16.45;;;9.77;;
39256;SDS011;67272;48.066;11.038;2023-09-30T00:26:22;18.45;;;10.48;;
39256;SDS011;67272;48.066;11.038;2023-09-30T00:32:18;18.38;;;11.05;;
39256;SDS011;67272;48.066;11.038;2023-09-30T00:34:50;17.92;;;10.07;;
39256;SDS011;67272;48.066;11.038;2023-09-30T00:37:17;18.25;;;10.80;;
39256;SDS011;67272;48.066;11.038;2023-09-30T00:39:47;17.33;;;10.40;;
39256;SDS011;67272;48.066;11.038;2023-09-30T00:42:13;15.30;;;10.40;;
39256;SDS011;67272;48.066;11.038;2023-09-30T00:44:43;15.90;;;10.30;;
39256;SDS011;67272;48.066;11.038;2023-09-30T00:47:09;17.35;;;10.32;;
39256;SDS011;67272;48.066;11.038;2023-09-30T00:49:36;17.48;;;10.80;;
39256;SDS011;67272;48.066;11.038;2023-09-30T00:52:03;17.92;;;10.85;;
39256;SDS011;67272;48.066;11.038;2023-09-30T00:54:30;18.88;;;10.63;;
39256;SDS011;67272;48.066;11.038;2023-09-30T00:56:59;17.98;;;10.68;;
39256;SDS011;67272;48.066;11.038;2023-09-30T00:59:27;15.70;;;10.02;;
39256;SDS011;67272;48.066;11.038;2023-09-30T01:01:56;16.58;;;10.13;;
39256;SDS011;67272;48.066;11.038;2023-09-30T01:04:23;17.20;;;9.85;;
39256;SDS011;67272;48.066;11.038;2023-09-30T01:06:49;15.63;;;9.70;;
39256;SDS011;67272;48.066;11.038;2023-09-30T01:09:16;18.05;;;9.98;;
39256;SDS011;67272;48.066;11.038;2023-09-30T01:11:48;16.10;;;10.25;;
39256;SDS011;67272;48.066;11.038;2023-09-30T01:14:27;20.23;;;10.80;;
39256;SDS011;67272;48.066;11.038;2023-09-30T01:16:54;16.20;;;9.75;;
39256;SDS011;67272;48.066;11.038;2023-09-30T01:19:21;17.67;;;10.30;;
39256;SDS011;67272;48.066;11.038;2023-09-30T01:21:59;15.25;;;9.60;;
39256;SDS011;67272;48.066;11.038;2023-09-30T01:24:27;17.05;;;9.88;;
39256;SDS011;67272;48.066;11.038;2023-09-30T01:26:57;18.45;;;10.15;;
39256;SDS011;67272;48.066;11.038;2023-09-30T01:29:24;18.08;;;10.10;;
39256;SDS011;67272;48.066;11.038;2023-09-30T01:32:00;21.10;;;10.57;;
39256;SDS011;67272;48.066;11.038;2023-09-30T01:34:27;19.23;;;10.57;;
39256;SDS011;67272;48.066;11.038;2023-09-30T01:36:53;16.52;;;10.07;;
39256;SDS011;67272;48.066;11.038;2023-09-30T01:39:20;20.33;;;9.52;;
39256;SDS011;67272;48.066;11.038;2023-09-30T01:41:50;18.85;;;10.25;;
39256;SDS011;67272;48.066;11.038;2023-09-30T01:44:16;15.32;;;8.90;;
39256;SDS011;67272;48.066;11.038;2023-09-30T01:46:45;16.35;;;10.05;;
39256;SDS011;67272;48.066;11.038;2023-09-30T01:49:12;15.05;;;10.10;;
39256;SDS011;67272;48.066;11.038;2023-09-30T01:51:42;17.00;;;9.48;;
39256;SDS011;67272;48.066;11.038;2023-09-30T01:54:08;15.30;;;9.23;;
39256;SDS011;67272;48.066;11.038;2023-09-30T01:56:36;19.23;;;9.95;;
39256;SDS011;67272;48.066;11.038;2023-09-30T01:59:03;16.25;;;9.40;;
39256;SDS011;67272;48.066;11.038;2023-09-30T02:01:29;18.88;;;10.18;;
39256;SDS011;67272;48.066;11.038;2023-09-30T02:03:55;16.42;;;9.27;;
39256;SDS011;67272;48.066;11.038;2023-09-30T02:06:22;15.02;;;9.38;;
39256;SDS011;67272;48.066;11.038;2023-09-30T02:08:58;17.38;;;10.00;;
39256;SDS011;67272;48.066;11.038;2023-09-30T02:11:24;17.77;;;9.65;;
39256;SDS011;67272;48.066;11.038;2023-09-30T02:13:50;16.88;;;9.25;;
39256;SDS011;67272;48.066;11.038;2023-09-30T02:16:26;16.85;;;9.60;;
39256;SDS011;67272;48.066;11.038;2023-09-30T02:18:52;16.58;;;9.68;;
39256;SDS011;67272;48.066;11.038;2023-09-30T02:21:21;14.23;;;9.00;;
39256;SDS011;67272;48.066;11.038;2023-09-30T02:23:48;15.98;;;9.50;;
39256;SDS011;67272;48.066;11.038;2023-09-30T02:26:15;14.98;;;8.95;;
39256;SDS011;67272;48.066;11.038;2023-09-30T02:28:41;15.77;;;9.00;;
39256;SDS011;67272;48.066;11.038;2023-09-30T02:31:07;14.43;;;9.45;;
39256;SDS011;67272;48.066;11.038;2023-09-30T02:33:34;15.27;;;9.65;;
39256;SDS011;67272;48.066;11.038;2023-09-30T02:36:01;15.50;;;9.18;;
39256;SDS011;67272;48.066;11.038;2023-09-30T02:38:30;14.80;;;9.20;;
39256;SDS011;67272;48.066;11.038;2023-09-30T02:40:56;15.57;;;9.30;;
39256;SDS011;67272;48.066;11.038;2023-09-30T02:43:23;13.00;;;8.23;;
39256;SDS011;67272;48.066;11.038;2023-09-30T02:45:49;15.55;;;8.93;;
39256;SDS011;67272;48.066;11.038;2023-09-30T02:48:15;15.93;;;8.73;;
39256;SDS011;67272;48.066;11.038;2023-09-30T02:50:42;13.88;;;8.95;;
39256;SDS011;67272;48.066;11.038;2023-09-30T02:53:12;15.73;;;9.40;;
39256;SDS011;67272;48.066;11.038;2023-09-30T02:55:39;15.43;;;8.85;;
39256;SDS011;67272;48.066;11.038;2023-09-30T02:58:08;17.88;;;9.45;;
39256;SDS011;67272;48.066;11.038;2023-09-30T03:00:42;15.25;;;8.93;;
39256;SDS011;67272;48.066;11.038;2023-09-30T03:03:23;15.18;;;9.05;;
39256;SDS011;67272;48.066;11.038;2023-09-30T03:05:53;15.18;;;8.70;;
39256;SDS011;67272;48.066;11.038;2023-09-30T03:08:19;14.05;;;8.93;;
39256;SDS011;67272;48.066;11.038;2023-09-30T03:10:47;14.75;;;9.65;;
39256;SDS011;67272;48.066;11.038;2023-09-30T03:13:20;14.70;;;8.70;;
39256;SDS011;67272;48.066;11.038;2023-09-30T03:15:47;16.67;;;9.73;;
39256;SDS011;67272;48.066;11.038;2023-09-30T03:18:17;14.43;;;9.18;;
39256;SDS011;67272;48.066;11.038;2023-09-30T03:20:50;17.48;;;9.43;;
39256;SDS011;67272;48.066;11.038;2023-09-30T03:23:22;16.15;;;9.38;;
39256;SDS011;67272;48.066;11.038;2023-09-30T03:25:55;18.48;;;9.70;;
39256;SDS011;67272;48.066;11.038;2023-09-30T03:28:25;16.52;;;11.27;;
39256;SDS011;67272;48.066;11.038;2023-09-30T03:30:54;14.95;;;9.45;;
39256;SDS011;67272;48.066;11.038;2023-09-30T03:33:22;15.38;;;9.05;;
39256;SDS011;67272;48.066;11.038;2023-09-30T03:35:48;18.02;;;9.68;;
39256;SDS011;67272;48.066;11.038;2023-09-30T03:38:15;17.52;;;9.15;;
39256;SDS011;67272;48.066;11.038;2023-09-30T03:40:43;17.38;;;9.18;;
39256;SDS011;67272;48.066;11.038;2023-09-30T03:43:16;13.30;;;8.30;;
39256;SDS011;67272;48.066;11.038;2023-09-30T03:45:42;16.92;;;9.43;;
39256;SDS011;67272;48.066;11.038;2023-09-30T03:48:11;14.07;;;8.63;;
39256;SDS011;67272;48.066;11.038;2023-09-30T03:50:41;12.32;;;8.30;;
39256;SDS011;67272;48.066;11.038;2023-09-30T03:53:08;16.17;;;8.93;;
39256;SDS011;67272;48.066;11.038;2023-09-30T03:55:34;12.93;;;8.25;;
39256;SDS011;67272;48.066;11.038;2023-09-30T03:58:08;12.82;;;7.88;;
39256;SDS011;67272;48.066;11.038;2023-09-30T04:00:35;15.00;;;8.98;;
39256;SDS011;67272;48.066;11.038;2023-09-30T04:03:04;13.32;;;7.70;;
39256;SDS011;67272;48.066;11.038;2023-09-30T04:05:34;14.60;;;7.70;;
39256;SDS011;67272;48.066;11.038;2023-09-30T04:08:02;14.50;;;8.35;;
39256;SDS011;67272;48.066;11.038;2023-09-30T04:10:30;15.93;;;8.43;;
39256;SDS011;67272;48.066;11.038;2023-09-30T04:12:57;13.27;;;7.95;;
39256;SDS011;67272;48.066;11.038;2023-09-30T04:15:23;12.25;;;8.00;;
39256;SDS011;67272;48.066;11.038;2023-09-30T04:17:50;15.40;;;8.35;;
39256;SDS011;67272;48.066;11.038;2023-09-30T04:20:26;11.48;;;7.72;;
39256;SDS011;67272;48.066;11.038;2023-09-30T04:22:52;12.57;;;7.60;;
39256;SDS011;67272;48.066;11.038;2023-09-30T04:25:25;12.77;;;7.25;;
39256;SDS011;67272;48.066;11.038;2023-09-30T04:27:55;14.55;;;8.52;;
39256;SDS011;67272;48.066;11.038;2023-09-30T04:30:22;13.38;;;7.72;;
39256;SDS011;67272;48.066;11.038;2023-09-30T04:32:55;13.88;;;8.20;;
39256;SDS011;67272;48.066;11.038;2023-09-30T04:35:22;12.77;;;7.88;;
39256;SDS011;67272;48.066;11.038;2023-09-30T04:37:50;13.20;;;7.63;;
39256;SDS011;67272;48.066;11.038;2023-09-30T04:40:17;13.35;;;7.35;;
39256;SDS011;67272;48.066;11.038;2023-09-30T04:42:50;12.88;;;8.13;;
39256;SDS011;67272;48.066;11.038;2023-09-30T04:45:16;13.57;;;7.80;;
39256;SDS011;67272;48.066;11.038;2023-09-30T04:47:46;13.23;;;7.82;;
39256;SDS011;67272;48.066;11.038;2023-09-30T04:50:14;11.75;;;7.00;;
39256;SDS011;67272;48.066;11.038;2023-09-30T04:52:41;13.40;;;7.53;;
39256;SDS011;67272;48.066;11.038;2023-09-30T04:55:08;11.13;;;6.93;;
39256;SDS011;67272;48.066;11.038;2023-09-30T04:57:34;12.68;;;7.53;;
39256;SDS011;67272;48.066;11.038;2023-09-30T05:00:00;10.85;;;7.00;;
39256;SDS011;67272;48.066;11.038;2023-09-30T05:02:36;13.20;;;7.25;;
39256;SDS011;67272;48.066;11.038;2023-09-30T05:05:05;9.95;;;6.47;;
39256;SDS011;67272;48.066;11.038;2023-09-30T05:07:35;13.30;;;7.20;;
39256;SDS011;67272;48.066;11.038;2023-09-30T05:10:02;10.75;;;6.78;;
39256;SDS011;67272;48.066;11.038;2023-09-30T05:12:35;13.02;;;7.13;;
39256;SDS011;67272;48.066;11.038;2023-09-30T05:15:03;12.85;;;7.20;;
39256;SDS011;67272;48.066;11.038;2023-09-30T05:17:34;16.63;;;8.25;;
39256;SDS011;67272;48.066;11.038;2023-09-30T05:20:03;12.15;;;7.47;;
39256;SDS011;67272;48.066;11.038;2023-09-30T05:22:38;12.75;;;7.22;;
39256;SDS011;67272;48.066;11.038;2023-09-30T05:25:14;12.88;;;7.13;;
39256;SDS011;67272;48.066;11.038;2023-09-30T05:27:45;12.45;;;7.00;;
39256;SDS011;67272;48.066;11.038;2023-09-30T05:30:13;12.25;;;6.97;;
39256;SDS011;67272;48.066;11.038;2023-09-30T05:32:41;13.15;;;7.40;;
39256;SDS011;67272;48.066;11.038;2023-09-30T05:35:13;10.60;;;6.05;;
39256;SDS011;67272;48.066;11.038;2023-09-30T05:37:42;10.40;;;6.40;;
39256;SDS011;67272;48.066;11.038;2023-09-30T05:40:10;8.48;;;5.70;;
39256;SDS011;67272;48.066;11.038;2023-09-30T05:42:58;9.15;;;5.68;;
39256;SDS011;67272;48.066;11.038;2023-09-30T05:45:30;10.32;;;6.22;;
39256;SDS011;67272;48.066;11.038;2023-09-30T05:48:01;10.18;;;6.20;;
39256;SDS011;67272;48.066;11.038;2023-09-30T05:50:29;9.50;;;6.07;;
39256;SDS011;67272;48.066;11.038;2023-09-30T05:52:56;10.98;;;6.38;;
39256;SDS011;67272;48.066;11.038;2023-09-30T05:55:23;13.27;;;6.75;;
39256;SDS011;67272;48.066;11.038;2023-09-30T05:57:50;10.90;;;7.05;;
39256;SDS011;67272;48.066;11.038;2023-09-30T06:00:20;10.07;;;6.00;;
39256;SDS011;67272;48.066;11.038;2023-09-30T06:02:48;10.73;;;6.25;;
39256;SDS011;67272;48.066;11.038;2023-09-30T06:05:14;10.68;;;6.50;;
39256;SDS011;67272;48.066;11.038;2023-09-30T06:07:41;11.25;;;6.60;;
39256;SDS011;67272;48.066;11.038;2023-09-30T06:10:16;10.65;;;6.68;;
39256;SDS011;67272;48.066;11.038;2023-09-30T06:12:47;10.23;;;6.60;;
39256;SDS011;67272;48.066;11.038;2023-09-30T06:15:14;11.48;;;5.93;;
39256;SDS011;67272;48.066;11.038;2023-09-30T06:17:41;14.98;;;6.45;;
39256;SDS011;67272;48.066;11.038;2023-09-30T06:20:08;9.35;;;6.05;;
39256;SDS011;67272;48.066;11.038;2023-09-30T06:22:41;10.95;;;6.43;;
39256;SDS011;67272;48.066;11.038;2023-09-30T06:25:08;9.57;;;5.78;;
39256;SDS011;67272;48.066;11.038;2023-09-30T06:27:35;7.82;;;5.47;;
39256;SDS011;67272;48.066;11.038;2023-09-30T06:30:02;9.85;;;6.05;;
39256;SDS011;67272;48.066;11.038;2023-09-30T06:32:30;11.82;;;5.97;;
39256;SDS011;67272;48.066;11.038;2023-09-30T06:34:56;9.10;;;5.60;;
39256;SDS011;67272;48.066;11.038;2023-09-30T06:37:23;10.23;;;6.28;;
39256;SDS011;67272;48.066;11.038;2023-09-30T06:39:52;12.15;;;6.72;;
39256;SDS011;67272;48.066;11.038;2023-09-30T06:42:18;11.10;;;6.47;;
39256;SDS011;67272;48.066;11.038;2023-09-30T06:44:45;10.20;;;6.28;;
39256;SDS011;67272;48.066;11.038;2023-09-30T06:47:12;10.35;;;6.38;;
39256;SDS011;67272;48.066;11.038;2023-09-30T06:49:38;11.18;;;6.43;;
39256;SDS011;67272;48.066;11.038;2023-09-30T06:52:11;10.70;;;6.30;;
39256;SDS011;67272;48.066;11.038;2023-09-30T06:54:37;9.60;;;6.20;;
39256;SDS011;67272;48.066;11.038;2023-09-30T06:57:04;10.00;;;6.45;;
39256;SDS011;67272;48.066;11.038;2023-09-30T06:59:32;11.68;;;6.72;;
39256;SDS011;67272;48.066;11.038;2023-09-30T07:01:58;9.60;;;6.10;;
39256;SDS011;67272;48.066;11.038;2023-09-30T07:04:24;9.95;;;6.68;;
39256;SDS011;67272;48.066;11.038;2023-09-30T07:06:52;11.68;;;6.75;;
39256;SDS011;67272;48.066;11.038;2023-09-30T07:09:19;12.25;;;6.50;;
39256;SDS011;67272;48.066;11.038;2023-09-30T07:11:54;10.45;;;6.05;;
39256;SDS011;67272;48.066;11.038;2023-09-30T07:14:27;10.30;;;6.18;;
39256;SDS011;67272;48.066;11.038;2023-09-30T07:16:53;9.35;;;6.13;;
39256;SDS011;67272;48.066;11.038;2023-09-30T07:19:19;10.27;;;5.93;;
39256;SDS011;67272;48.066;11.038;2023-09-30T07:21:45;9.20;;;5.55;;
39256;SDS011;67272;48.066;11.038;2023-09-30T07:24:12;8.85;;;5.35;;
39256;SDS011;67272;48.066;11.038;2023-09-30T07:26:38;7.47;;;5.20;;
39256;SDS011;67272;48.066;11.038;2023-09-30T07:29:04;8.25;;;5.38;;
39256;SDS011;67272;48.066;11.038;2023-09-30T07:31:37;8.80;;;5.68;;
39256;SDS011;67272;48.066;11.038;2023-09-30T07:34:03;9.00;;;5.32;;
39256;SDS011;67272;48.066;11.038;2023-09-30T07:36:32;9.02;;;5.43;;
39256;SDS011;67272;48.066;11.038;2023-09-30T07:38:58;8.85;;;5.22;;
39256;SDS011;67272;48.066;11.038;2023-09-30T07:41:34;8.77;;;5.55;;
39256;SDS011;67272;48.066;11.038;2023-09-30T07:44:02;10.50;;;5.05;;
39256;SDS011;67272;48.066;11.038;2023-09-30T07:46:28;9.63;;;5.22;;
39256;SDS011;67272;48.066;11.038;2023-09-30T07:48:54;8.35;;;5.50;;
39256;SDS011;67272;48.066;11.038;2023-09-30T07:51:20;9.23;;;5.57;;
39256;SDS011;67272;48.066;11.038;2023-09-30T07:53:47;8.30;;;5.03;;
39256;SDS011;67272;48.066;11.038;2023-09-30T07:56:13;8.70;;;4.95;;
39256;SDS011;67272;48.066;11.038;2023-09-30T07:58:39;8.40;;;4.88;;
39256;SDS011;67272;48.066;11.038;2023-09-30T08:01:07;8.85;;;5.35;;
39256;SDS011;67272;48.066;11.038;2023-09-30T08:03:33;9.70;;;5.72;;
39256;SDS011;67272;48.066;11.038;2023-09-30T08:06:00;9.30;;;5.78;;
39256;SDS011;67272;48.066;11.038;2023-09-30T08:08:27;8.10;;;5.63;;
39256;SDS011;67272;48.066;11.038;2023-09-30T08:10:55;9.30;;;5.18;;
39256;SDS011;67272;48.066;11.038;2023-09-30T08:13:22;8.60;;;5.85;;
39256;SDS011;67272;48.066;11.038;2023-09-30T08:15:51;9.18;;;6.20;;
39256;SDS011;67272;48.066;11.038;2023-09-30T08:18:18;9.27;;;5.00;;
39256;SDS011;67272;48.066;11.038;2023-09-30T08:20:44;7.70;;;4.70;;
39256;SDS011;67272;48.066;11.038;2023-09-30T08:23:17;7.40;;;5.25;;
39256;SDS011;67272;48.066;11.038;2023-09-30T08:25:43;8.82;;;5.20;;
39256;SDS011;67272;48.066;11.038;2023-09-30T08:28:12;8.13;;;5.50;;
39256;SDS011;67272;48.066;11.038;2023-09-30T08:30:39;9.43;;;5.75;;
39256;SDS011;67272;48.066;11.038;2023-09-30T08:33:05;8.13;;;5.15;;
39256;SDS011;67272;48.066;11.038;2023-09-30T08:35:38;8.13;;;4.88;;
39256;SDS011;67272;48.066;11.038;2023-09-30T08:38:04;6.65;;;4.57;;
39256;SDS011;67272;48.066;11.038;2023-09-30T08:40:31;8.23;;;4.50;;
39256;SDS011;67272;48.066;11.038;2023-09-30T08:42:57;8.18;;;5.03;;
39256;SDS011;67272;48.066;11.038;2023-09-30T08:45:23;7.97;;;4.95;;
39256;SDS011;67272;48.066;11.038;2023-09-30T08:47:50;7.53;;;4.97;;
39256;SDS011;67272;48.066;11.038;2023-09-30T08:50:16;7.10;;;4.50;;
39256;SDS011;67272;48.066;11.038;2023-09-30T08:52:43;7.53;;;4.85;;
39256;SDS011;67272;48.066;11.038;2023-09-30T08:55:12;7.55;;;5.03;;
39256;SDS011;67272;48.066;11.038;2023-09-30T08:57:40;7.65;;;4.97;;
39256;SDS011;67272;48.066;11.038;2023-09-30T09:00:07;7.80;;;4.90;;
39256;SDS011;67272;48.066;11.038;2023-09-30T09:02:37;7.78;;;5.03;;
39256;SDS011;67272;48.066;11.038;2023-09-30T09:05:03;9.00;;;4.88;;
39256;SDS011;67272;48.066;11.038;2023-09-30T09:07:31;6.82;;;4.88;;
39256;SDS011;67272;48.066;11.038;2023-09-30T09:10:05;6.97;;;4.63;;
39256;SDS011;67272;48.066;11.038;2023-09-30T09:12:33;7.57;;;4.80;;
39256;SDS011;67272;48.066;11.038;2023-09-30T09:14:59;7.20;;;5.40;;
39256;SDS011;67272;48.066;11.038;2023-09-30T09:17:39;7.53;;;5.20;;
39256;SDS011;67272;48.066;11.038;2023-09-30T09:20:07;7.03;;;4.57;;
39256;SDS011;67272;48.066;11.038;2023-09-30T09:22:42;7.07;;;4.70;;
39256;SDS011;67272;48.066;11.038;2023-09-30T09:25:09;9.27;;;5.55;;
39256;SDS011;67272;48.066;11.038;2023-09-30T09:27:35;6.60;;;5.05;;
39256;SDS011;67272;48.066;11.038;2023-09-30T09:30:18;8.48;;;5.53;;
39256;SDS011;67272;48.066;11.038;2023-09-30T09:32:52;7.45;;;5.25;;
39256;SDS011;67272;48.066;11.038;2023-09-30T09:35:21;6.65;;;5.25;;
39256;SDS011;67272;48.066;11.038;2023-09-30T09:38:06;7.22;;;5.47;;
39256;SDS011;67272;48.066;11.038;2023-09-30T09:40:33;8.38;;;5.68;;
39256;SDS011;67272;48.066;11.038;2023-09-30T09:43:00;8.05;;;5.22;;
39256;SDS011;67272;48.066;11.038;2023-09-30T09:45:30;8.95;;;6.28;;
39256;SDS011;67272;48.066;11.038;2023-09-30T09:47:58;8.95;;;5.43;;
39256;SDS011;67272;48.066;11.038;2023-09-30T09:50:24;9.65;;;5.50;;
39256;SDS011;67272;48.066;11.038;2023-09-30T09:52:51;8.00;;;5.78;;
39256;SDS011;67272;48.066;11.038;2023-09-30T09:55:20;7.97;;;5.32;;
39256;SDS011;67272;48.066;11.038;2023-09-30T09:57:47;7.07;;;5.45;;
39256;SDS011;67272;48.066;11.038;2023-09-30T10:00:24;8.40;;;5.90;;
39256;SDS011;67272;48.066;11.038;2023-09-30T10:02:50;10.00;;;6.13;;
39256;SDS011;67272;48.066;11.038;2023-09-30T10:05:17;7.03;;;5.50;;
39256;SDS011;67272;48.066;11.038;2023-09-30T10:10:28;9.07;;;6.03;;
39256;SDS011;67272;48.066;11.038;2023-09-30T10:12:55;8.55;;;5.85;;
39256;SDS011;67272;48.066;11.038;2023-09-30T10:17:57;9.70;;;5.80;;
39256;SDS011;67272;48.066;11.038;2023-09-30T10:25:42;8.65;;;5.93;;
39256;SDS011;67272;48.066;11.038;2023-09-30T10:28:36;8.50;;;5.95;;
39256;SDS011;67272;48.066;11.038;2023-09-30T10:31:10;10.68;;;6.13;;
39256;SDS011;67272;48.066;11.038;2023-09-30T10:36:29;10.70;;;6.45;;
39256;SDS011;67272;48.066;11.038;2023-09-30T10:38:57;10.63;;;6.95;;
39256;SDS011;67272;48.066;11.038;2023-09-30T10:46:53;10.13;;;6.43;;
39256;SDS011;67272;48.066;11.038;2023-09-30T10:51:51;10.07;;;7.05;;
39256;SDS011;67272;48.066;11.038;2023-09-30T10:54:25;10.50;;;6.38;;
39256;SDS011;67272;48.066;11.038;2023-09-30T10:56:51;8.20;;;6.47;;
39256;SDS011;67272;48.066;11.038;2023-09-30T10:59:23;8.05;;;6.18;;
39256;SDS011;67272;48.066;11.038;2023-09-30T11:01:50;10.30;;;7.07;;
39256;SDS011;67272;48.066;11.038;2023-09-30T11:04:18;11.43;;;6.90;;
39256;SDS011;67272;48.066;11.038;2023-09-30T11:06:45;11.65;;;7.28;;
39256;SDS011;67272;48.066;11.038;2023-09-30T11:09:18;10.57;;;6.32;;
39256;SDS011;67272;48.066;11.038;2023-09-30T11:11:51;10.70;;;6.78;;
39256;SDS011;67272;48.066;11.038;2023-09-30T11:14:25;11.05;;;7.43;;
39256;SDS011;67272;48.066;11.038;2023-09-30T11:16:53;9.77;;;6.55;;
39256;SDS011;67272;48.066;11.038;2023-09-30T11:19:20;9.20;;;6.55;;
39256;SDS011;67272;48.066;11.038;2023-09-30T11:21:47;10.52;;;6.68;;
39256;SDS011;67272;48.066;11.038;2023-09-30T11:24:17;10.05;;;7.00;;
39256;SDS011;67272;48.066;11.038;2023-09-30T11:26:44;11.23;;;7.10;;
39256;SDS011;67272;48.066;11.038;2023-09-30T11:31:38;9.40;;;6.60;;
39256;SDS011;67272;48.066;11.038;2023-09-30T11:34:04;10.98;;;7.80;;
39256;SDS011;67272;48.066;11.038;2023-09-30T11:36:49;10.23;;;7.35;;
39256;SDS011;67272;48.066;11.038;2023-09-30T11:39:27;11.43;;;7.38;;
39256;SDS011;67272;48.066;11.038;2023-09-30T11:41:53;13.05;;;7.90;;
39256;SDS011;67272;48.066;11.038;2023-09-30T11:44:21;12.95;;;7.97;;
39256;SDS011;67272;48.066;11.038;2023-09-30T11:46:57;11.43;;;7.88;;
39256;SDS011;67272;48.066;11.038;2023-09-30T11:52:00;12.13;;;8.07;;
39256;SDS011;67272;48.066;11.038;2023-09-30T11:54:42;11.27;;;7.65;;
39256;SDS011;67272;48.066;11.038;2023-09-30T11:57:16;11.85;;;7.85;;
39256;SDS011;67272;48.066;11.038;2023-09-30T11:59:42;11.10;;;7.47;;
39256;SDS011;67272;48.066;11.038;2023-09-30T12:02:10;12.00;;;6.78;;
39256;SDS011;67272;48.066;11.038;2023-09-30T12:04:36;10.90;;;7.60;;
39256;SDS011;67272;48.066;11.038;2023-09-30T12:07:03;10.43;;;6.93;;
39256;SDS011;67272;48.066;11.038;2023-09-30T12:09:29;11.35;;;7.85;;
39256;SDS011;67272;48.066;11.038;2023-09-30T12:11:59;11.85;;;7.35;;
39256;SDS011;67272;48.066;11.038;2023-09-30T12:14:26;10.02;;;6.50;;
39256;SDS011;67272;48.066;11.038;2023-09-30T12:17:00;10.70;;;7.10;;
39256;SDS011;67272;48.066;11.038;2023-09-30T12:19:26;11.32;;;7.43;;
39256;SDS011;67272;48.066;11.038;2023-09-30T12:21:52;10.73;;;7.20;;
39256;SDS011;67272;48.066;11.038;2023-09-30T12:24:19;10.13;;;6.97;;
39256;SDS011;67272;48.066;11.038;2023-09-30T12:26:47;10.98;;;7.43;;
39256;SDS011;67272;48.066;11.038;2023-09-30T12:29:33;10.25;;;6.65;;
39256;SDS011;67272;48.066;11.038;2023-09-30T12:31:59;10.07;;;7.15;;
39256;SDS011;67272;48.066;11.038;2023-09-30T12:34:26;10.68;;;6.95;;
39256;SDS011;67272;48.066;11.038;2023-09-30T12:36:52;10.48;;;7.22;;
39256;SDS011;67272;48.066;11.038;2023-09-30T12:39:20;9.02;;;6.57;;
39256;SDS011;67272;48.066;11.038;2023-09-30T12:41:49;12.38;;;7.68;;
39256;SDS011;67272;48.066;11.038;2023-09-30T12:44:15;11.50;;;8.07;;
39256;SDS011;67272;48.066;11.038;2023-09-30T12:46:43;10.07;;;7.07;;
39256;SDS011;67272;48.066;11.038;2023-09-30T12:49:09;10.48;;;7.43;;
39256;SDS011;67272;48.066;11.038;2023-09-30T12:51:38;10.05;;;7.18;;
39256;SDS011;67272;48.066;11.038;2023-09-30T12:54:05;9.88;;;6.97;;
39256;SDS011;67272;48.066;11.038;2023-09-30T12:56:32;9.65;;;6.50;;
39256;SDS011;67272;48.066;11.038;2023-09-30T12:58:58;9.75;;;7.22;;
39256;SDS011;67272;48.066;11.038;2023-09-30T13:01:25;10.70;;;8.02;;
39256;SDS011;67272;48.066;11.038;2023-09-30T13:03:53;10.82;;;7.22;;
39256;SDS011;67272;48.066;11.038;2023-09-30T13:06:20;8.80;;;6.72;;
39256;SDS011;67272;48.066;11.038;2023-09-30T13:08:46;10.45;;;7.28;;
39256;SDS011;67272;48.066;11.038;2023-09-30T13:11:13;9.77;;;7.25;;
39256;SDS011;67272;48.066;11.038;2023-09-30T13:13:40;9.40;;;6.80;;
39256;SDS011;67272;48.066;11.038;2023-09-30T13:16:06;10.48;;;7.32;;
39256;SDS011;67272;48.066;11.038;2023-09-30T13:18:32;9.95;;;7.07;;
39256;SDS011;67272;48.066;11.038;2023-09-30T13:20:59;10.70;;;7.10;;
39256;SDS011;67272;48.066;11.038;2023-09-30T13:23:28;10.10;;;6.68;;
39256;SDS011;67272;48.066;11.038;2023-09-30T13:25:55;11.20;;;7.28;;
39256;SDS011;67272;48.066;11.038;2023-09-30T13:28:23;8.70;;;6.45;;
39256;SDS011;67272;48.066;11.038;2023-09-30T13:30:55;9.10;;;6.32;;
39256;SDS011;67272;48.066;11.038;2023-09-30T13:33:22;9.63;;;6.80;;
39256;SDS011;67272;48.066;11.038;2023-09-30T13:35:49;10.55;;;6.78;;
39256;SDS011;67272;48.066;11.038;2023-09-30T13:38:15;10.20;;;6.75;;
39256;SDS011;67272;48.066;11.038;2023-09-30T13:40:43;9.45;;;6.88;;
39256;SDS011;67272;48.066;11.038;2023-09-30T13:43:11;11.05;;;6.95;;
39256;SDS011;67272;48.066;11.038;2023-09-30T13:45:38;10.63;;;6.78;;
39256;SDS011;67272;48.066;11.038;2023-09-30T13:48:05;9.63;;;6.82;;
39256;SDS011;67272;48.066;11.038;2023-09-30T13:50:33;9.73;;;6.68;;
39256;SDS011;67272;48.066;11.038;2023-09-30T13:53:01;9.57;;;6.55;;
39256;SDS011;67272;48.066;11.038;2023-09-30T13:55:28;10.85;;;6.82;;
39256;SDS011;67272;48.066;11.038;2023-09-30T13:57:54;10.57;;;7.00;;
39256;SDS011;67272;48.066;11.038;2023-09-30T14:00:20;10.80;;;7.40;;
39256;SDS011;67272;48.066;11.038;2023-09-30T14:02:46;9.68;;;6.80;;
39256;SDS011;67272;48.066;11.038;2023-09-30T14:05:13;10.02;;;6.28;;
39256;SDS011;67272;48.066;11.038;2023-09-30T14:07:39;8.80;;;5.93;;
39256;SDS011;67272;48.066;11.038;2023-09-30T14:10:05;9.85;;;6.55;;
39256;SDS011;67272;48.066;11.038;2023-09-30T14:12:32;9.43;;;6.72;;
39256;SDS011;67272;48.066;11.038;2023-09-30T14:14:59;10.52;;;7.55;;
39256;SDS011;67272;48.066;11.038;2023-09-30T14:17:25;12.20;;;7.75;;
39256;SDS011;67272;48.066;11.038;2023-09-30T14:19:51;10.45;;;6.80;;
39256;SDS011;67272;48.066;11.038;2023-09-30T14:22:17;9.18;;;6.63;;
39256;SDS011;67272;48.066;11.038;2023-09-30T14:24:43;9.63;;;7.10;;
39256;SDS011;67272;48.066;11.038;2023-09-30T14:27:10;9.88;;;7.03;;
39256;SDS011;67272;48.066;11.038;2023-09-30T14:29:39;10.57;;;6.35;;
39256;SDS011;67272;48.066;11.038;2023-09-30T14:32:05;12.25;;;7.35;;
39256;SDS011;67272;48.066;11.038;2023-09-30T14:34:32;10.32;;;6.55;;
39256;SDS011;67272;48.066;11.038;2023-09-30T14:36:58;10.38;;;6.30;;
39256;SDS011;67272;48.066;11.038;2023-09-30T14:39:24;9.63;;;6.35;;
39256;SDS011;67272;48.066;11.038;2023-09-30T14:41:50;10.20;;;6.57;;
39256;SDS011;67272;48.066;11.038;2023-09-30T14:44:16;10.10;;;6.53;;
39256;SDS011;67272;48.066;11.038;2023-09-30T14:46:43;11.15;;;6.15;;
39256;SDS011;67272;48.066;11.038;2023-09-30T14:49:09;9.70;;;6.55;;
39256;SDS011;67272;48.066;11.038;2023-09-30T14:51:36;8.70;;;5.78;;
39256;SDS011;67272;48.066;11.038;2023-09-30T14:54:03;9.98;;;6.40;;
39256;SDS011;67272;48.066;11.038;2023-09-30T14:56:30;10.75;;;6.43;;
39256;SDS011;67272;48.066;11.038;2023-09-30T14:58:56;9.52;;;6.22;;
39256;SDS011;67272;48.066;11.038;2023-09-30T15:01:24;9.80;;;6.88;;
39256;SDS011;67272;48.066;11.038;2023-09-30T15:03:51;9.40;;;6.10;;